sensor_id;sensor_type;location;lat;lon;timestamp;P1;durP1;ratioP1;P2;durP2;ratioP2
49223;SDS011;35050;51.316;5.994;2022-11-25T00:00:52;10.07;;;2.72;;
49223;SDS011;35050;51.316;5.994;2022-11-25T00:03:18;12.57;;;3.70;;
49223;SDS011;35050;51.316;5.994;2022-11-25T00:05:44;11.65;;;2.78;;
49223;SDS011;35050;51.316;5.994;2022-11-25T00:08:10;6.85;;;1.95;;
49223;SDS011;35050;51.316;5.994;2022-11-25T00:10:35;8.93;;;2.42;;
49223;SDS011;35050;51.316;5.994;2022-11-25T00:13:01;14.02;;;4.20;;
49223;SDS011;35050;51.316;5.994;2022-11-25T00:15:27;8.85;;;2.38;;
49223;SDS011;35050;51.316;5.994;2022-11-25T00:17:53;9.25;;;2.50;;
49223;SDS011;35050;51.316;5.994;2022-11-25T00:20:18;6.95;;;2.15;;
49223;SDS011;35050;51.316;5.994;2022-11-25T00:22:45;12.93;;;2.97;;
49223;SDS011;35050;51.316;5.994;2022-11-25T00:25:11;11.68;;;2.75;;
49223;SDS011;35050;51.316;5.994;2022-11-25T00:27:36;9.70;;;2.88;;
49223;SDS011;35050;51.316;5.994;2022-11-25T00:30:02;9.80;;;3.25;;
49223;SDS011;35050;51.316;5.994;2022-11-25T00:32:29;8.75;;;2.72;;
49223;SDS011;35050;51.316;5.994;2022-11-25T00:34:54;8.43;;;2.67;;
49223;SDS011;35050;51.316;5.994;2022-11-25T00:37:20;8.23;;;2.70;;
49223;SDS011;35050;51.316;5.994;2022-11-25T00:39:46;10.98;;;2.33;;
49223;SDS011;35050;51.316;5.994;2022-11-25T00:42:11;8.98;;;2.70;;
49223;SDS011;35050;51.316;5.994;2022-11-25T00:44:55;8.18;;;1.92;;
49223;SDS011;35050;51.316;5.994;2022-11-25T00:47:21;8.55;;;2.72;;
49223;SDS011;35050;51.316;5.994;2022-11-25T00:49:50;8.63;;;2.00;;
49223;SDS011;35050;51.316;5.994;2022-11-25T00:52:18;13.02;;;2.88;;
49223;SDS011;35050;51.316;5.994;2022-11-25T00:54:46;14.73;;;2.90;;
49223;SDS011;35050;51.316;5.994;2022-11-25T00:57:12;8.00;;;1.88;;
49223;SDS011;35050;51.316;5.994;2022-11-25T00:59:39;7.88;;;2.10;;
49223;SDS011;35050;51.316;5.994;2022-11-25T01:02:05;6.63;;;1.85;;
49223;SDS011;35050;51.316;5.994;2022-11-25T01:04:31;8.18;;;2.80;;
49223;SDS011;35050;51.316;5.994;2022-11-25T01:06:57;9.73;;;2.35;;
49223;SDS011;35050;51.316;5.994;2022-11-25T01:09:24;10.18;;;2.13;;
49223;SDS011;35050;51.316;5.994;2022-11-25T01:11:51;9.13;;;1.90;;
49223;SDS011;35050;51.316;5.994;2022-11-25T01:14:20;10.70;;;2.55;;
49223;SDS011;35050;51.316;5.994;2022-11-25T01:16:47;13.65;;;2.13;;
49223;SDS011;35050;51.316;5.994;2022-11-25T01:19:13;10.45;;;3.38;;
49223;SDS011;35050;51.316;5.994;2022-11-25T01:21:39;8.95;;;2.60;;
49223;SDS011;35050;51.316;5.994;2022-11-25T01:24:05;6.60;;;1.90;;
49223;SDS011;35050;51.316;5.994;2022-11-25T01:26:31;6.13;;;1.83;;
49223;SDS011;35050;51.316;5.994;2022-11-25T01:28:58;10.63;;;2.17;;
49223;SDS011;35050;51.316;5.994;2022-11-25T01:31:30;7.18;;;2.00;;
49223;SDS011;35050;51.316;5.994;2022-11-25T01:34:01;9.32;;;2.10;;
49223;SDS011;35050;51.316;5.994;2022-11-25T01:36:47;8.02;;;2.38;;
49223;SDS011;35050;51.316;5.994;2022-11-25T01:39:16;7.65;;;2.05;;
49223;SDS011;35050;51.316;5.994;2022-11-25T01:41:47;11.98;;;2.97;;
49223;SDS011;35050;51.316;5.994;2022-11-25T01:49:11;6.70;;;2.30;;
49223;SDS011;35050;51.316;5.994;2022-11-25T01:51:46;9.07;;;2.38;;
49223;SDS011;35050;51.316;5.994;2022-11-25T01:54:27;6.85;;;2.03;;
49223;SDS011;35050;51.316;5.994;2022-11-25T01:56:58;7.85;;;1.98;;
49223;SDS011;35050;51.316;5.994;2022-11-25T01:59:27;8.30;;;2.00;;
49223;SDS011;35050;51.316;5.994;2022-11-25T02:01:56;7.88;;;1.95;;
49223;SDS011;35050;51.316;5.994;2022-11-25T02:04:22;9.30;;;2.55;;
49223;SDS011;35050;51.316;5.994;2022-11-25T02:06:54;9.75;;;2.60;;
49223;SDS011;35050;51.316;5.994;2022-11-25T02:09:25;7.20;;;2.27;;
49223;SDS011;35050;51.316;5.994;2022-11-25T02:11:51;7.75;;;1.90;;
49223;SDS011;35050;51.316;5.994;2022-11-25T02:14:18;7.15;;;2.28;;
49223;SDS011;35050;51.316;5.994;2022-11-25T02:16:46;10.63;;;2.20;;
49223;SDS011;35050;51.316;5.994;2022-11-25T02:19:16;5.25;;;2.58;;
49223;SDS011;35050;51.316;5.994;2022-11-25T02:21:49;8.18;;;1.85;;
49223;SDS011;35050;51.316;5.994;2022-11-25T02:24:39;12.03;;;2.80;;
49223;SDS011;35050;51.316;5.994;2022-11-25T02:27:10;10.15;;;1.83;;
49223;SDS011;35050;51.316;5.994;2022-11-25T02:29:36;6.63;;;2.08;;
49223;SDS011;35050;51.316;5.994;2022-11-25T02:32:03;6.38;;;1.90;;
49223;SDS011;35050;51.316;5.994;2022-11-25T02:34:29;7.40;;;1.75;;
49223;SDS011;35050;51.316;5.994;2022-11-25T02:36:55;9.48;;;1.95;;
49223;SDS011;35050;51.316;5.994;2022-11-25T02:39:20;7.03;;;2.35;;
49223;SDS011;35050;51.316;5.994;2022-11-25T02:41:48;6.13;;;1.90;;
49223;SDS011;35050;51.316;5.994;2022-11-25T02:44:18;5.82;;;1.98;;
49223;SDS011;35050;51.316;5.994;2022-11-25T02:46:44;10.30;;;2.13;;
49223;SDS011;35050;51.316;5.994;2022-11-25T02:49:10;7.65;;;2.05;;
49223;SDS011;35050;51.316;5.994;2022-11-25T02:51:37;12.23;;;2.40;;
49223;SDS011;35050;51.316;5.994;2022-11-25T02:54:04;8.07;;;2.28;;
49223;SDS011;35050;51.316;5.994;2022-11-25T02:56:31;8.07;;;1.85;;
49223;SDS011;35050;51.316;5.994;2022-11-25T02:58:59;7.93;;;1.92;;
49223;SDS011;35050;51.316;5.994;2022-11-25T03:01:25;8.55;;;1.88;;
49223;SDS011;35050;51.316;5.994;2022-11-25T03:03:51;9.82;;;2.45;;
49223;SDS011;35050;51.316;5.994;2022-11-25T03:06:17;8.70;;;2.15;;
49223;SDS011;35050;51.316;5.994;2022-11-25T03:08:43;7.70;;;2.00;;
49223;SDS011;35050;51.316;5.994;2022-11-25T03:11:08;6.38;;;1.95;;
49223;SDS011;35050;51.316;5.994;2022-11-25T03:13:34;9.65;;;2.40;;
49223;SDS011;35050;51.316;5.994;2022-11-25T03:15:59;6.75;;;2.20;;
49223;SDS011;35050;51.316;5.994;2022-11-25T03:18:25;6.13;;;1.75;;
49223;SDS011;35050;51.316;5.994;2022-11-25T03:20:55;7.70;;;1.83;;
49223;SDS011;35050;51.316;5.994;2022-11-25T03:23:21;8.82;;;2.40;;
49223;SDS011;35050;51.316;5.994;2022-11-25T03:25:46;6.75;;;2.15;;
49223;SDS011;35050;51.316;5.994;2022-11-25T03:28:12;5.85;;;1.73;;
49223;SDS011;35050;51.316;5.994;2022-11-25T03:30:38;5.63;;;1.80;;
49223;SDS011;35050;51.316;5.994;2022-11-25T03:33:03;6.72;;;1.55;;
49223;SDS011;35050;51.316;5.994;2022-11-25T03:35:29;5.30;;;1.70;;
49223;SDS011;35050;51.316;5.994;2022-11-25T03:37:55;5.97;;;1.40;;
49223;SDS011;35050;51.316;5.994;2022-11-25T03:40:20;5.75;;;1.70;;
49223;SDS011;35050;51.316;5.994;2022-11-25T03:42:46;2.78;;;1.23;;
49223;SDS011;35050;51.316;5.994;2022-11-25T03:45:13;5.22;;;1.38;;
49223;SDS011;35050;51.316;5.994;2022-11-25T03:47:40;2.40;;;1.15;;
49223;SDS011;35050;51.316;5.994;2022-11-25T03:50:07;3.33;;;1.20;;
49223;SDS011;35050;51.316;5.994;2022-11-25T03:52:34;4.38;;;1.08;;
49223;SDS011;35050;51.316;5.994;2022-11-25T03:55:00;2.38;;;0.98;;
49223;SDS011;35050;51.316;5.994;2022-11-25T03:57:26;3.70;;;1.17;;
49223;SDS011;35050;51.316;5.994;2022-11-25T03:59:52;2.22;;;1.00;;
49223;SDS011;35050;51.316;5.994;2022-11-25T04:02:17;4.65;;;1.40;;
49223;SDS011;35050;51.316;5.994;2022-11-25T04:04:43;4.68;;;0.98;;
49223;SDS011;35050;51.316;5.994;2022-11-25T04:07:09;2.70;;;0.95;;
49223;SDS011;35050;51.316;5.994;2022-11-25T04:09:34;3.15;;;1.13;;
49223;SDS011;35050;51.316;5.994;2022-11-25T04:12:00;2.20;;;0.70;;
49223;SDS011;35050;51.316;5.994;2022-11-25T04:14:44;4.10;;;1.40;;
49223;SDS011;35050;51.316;5.994;2022-11-25T04:17:10;4.38;;;1.10;;
49223;SDS011;35050;51.316;5.994;2022-11-25T04:19:35;5.78;;;1.63;;
49223;SDS011;35050;51.316;5.994;2022-11-25T04:22:01;3.05;;;1.25;;
49223;SDS011;35050;51.316;5.994;2022-11-25T04:24:27;6.60;;;1.20;;
49223;SDS011;35050;51.316;5.994;2022-11-25T04:26:53;7.53;;;1.88;;
49223;SDS011;35050;51.316;5.994;2022-11-25T04:29:19;2.97;;;1.20;;
49223;SDS011;35050;51.316;5.994;2022-11-25T04:31:44;4.70;;;1.17;;
49223;SDS011;35050;51.316;5.994;2022-11-25T04:34:10;1.98;;;1.10;;
49223;SDS011;35050;51.316;5.994;2022-11-25T04:36:36;2.97;;;1.02;;
49223;SDS011;35050;51.316;5.994;2022-11-25T04:39:02;2.30;;;0.98;;
49223;SDS011;35050;51.316;5.994;2022-11-25T04:41:27;1.70;;;0.70;;
49223;SDS011;35050;51.316;5.994;2022-11-25T04:43:53;1.95;;;0.88;;
49223;SDS011;35050;51.316;5.994;2022-11-25T04:46:20;2.33;;;0.70;;
49223;SDS011;35050;51.316;5.994;2022-11-25T04:48:48;1.17;;;0.52;;
49223;SDS011;35050;51.316;5.994;2022-11-25T04:51:13;1.65;;;0.70;;
49223;SDS011;35050;51.316;5.994;2022-11-25T04:53:39;2.33;;;0.70;;
49223;SDS011;35050;51.316;5.994;2022-11-25T04:56:05;2.42;;;0.82;;
49223;SDS011;35050;51.316;5.994;2022-11-25T04:58:31;3.22;;;1.00;;
49223;SDS011;35050;51.316;5.994;2022-11-25T05:01:15;1.13;;;0.40;;
49223;SDS011;35050;51.316;5.994;2022-11-25T05:03:41;0.65;;;0.57;;
49223;SDS011;35050;51.316;5.994;2022-11-25T05:06:07;0.70;;;0.40;;
49223;SDS011;35050;51.316;5.994;2022-11-25T05:08:33;2.20;;;0.60;;
49223;SDS011;35050;51.316;5.994;2022-11-25T05:10:59;3.17;;;0.68;;
49223;SDS011;35050;51.316;5.994;2022-11-25T05:13:25;2.40;;;0.80;;
49223;SDS011;35050;51.316;5.994;2022-11-25T05:15:50;2.53;;;0.77;;
49223;SDS011;35050;51.316;5.994;2022-11-25T05:18:16;1.65;;;0.50;;
49223;SDS011;35050;51.316;5.994;2022-11-25T05:20:42;2.67;;;0.63;;
49223;SDS011;35050;51.316;5.994;2022-11-25T05:23:08;0.77;;;0.60;;
49223;SDS011;35050;51.316;5.994;2022-11-25T05:25:34;1.88;;;0.57;;
49223;SDS011;35050;51.316;5.994;2022-11-25T05:28:00;3.20;;;0.82;;
49223;SDS011;35050;51.316;5.994;2022-11-25T05:30:26;1.73;;;0.55;;
49223;SDS011;35050;51.316;5.994;2022-11-25T05:32:51;4.22;;;0.80;;
49223;SDS011;35050;51.316;5.994;2022-11-25T05:35:17;2.35;;;0.75;;
49223;SDS011;35050;51.316;5.994;2022-11-25T05:37:43;1.83;;;0.60;;
49223;SDS011;35050;51.316;5.994;2022-11-25T05:40:09;1.40;;;0.50;;
49223;SDS011;35050;51.316;5.994;2022-11-25T05:42:35;0.98;;;0.40;;
49223;SDS011;35050;51.316;5.994;2022-11-25T05:45:01;1.38;;;0.50;;
49223;SDS011;35050;51.316;5.994;2022-11-25T05:47:27;1.05;;;0.50;;
49223;SDS011;35050;51.316;5.994;2022-11-25T05:49:52;1.77;;;0.60;;
49223;SDS011;35050;51.316;5.994;2022-11-25T05:52:18;1.27;;;0.70;;
49223;SDS011;35050;51.316;5.994;2022-11-25T05:54:44;0.77;;;0.60;;
49223;SDS011;35050;51.316;5.994;2022-11-25T05:57:09;1.00;;;0.50;;
49223;SDS011;35050;51.316;5.994;2022-11-25T05:59:35;1.73;;;0.40;;
49223;SDS011;35050;51.316;5.994;2022-11-25T06:02:00;1.13;;;0.40;;
49223;SDS011;35050;51.316;5.994;2022-11-25T06:04:26;1.25;;;0.47;;
49223;SDS011;35050;51.316;5.994;2022-11-25T06:06:52;1.08;;;0.40;;
49223;SDS011;35050;51.316;5.994;2022-11-25T06:09:17;0.30;;;0.30;;
49223;SDS011;35050;51.316;5.994;2022-11-25T06:11:43;1.15;;;0.50;;
49223;SDS011;35050;51.316;5.994;2022-11-25T06:14:08;1.08;;;0.40;;
49223;SDS011;35050;51.316;5.994;2022-11-25T06:16:34;1.02;;;0.50;;
49223;SDS011;35050;51.316;5.994;2022-11-25T06:19:01;1.08;;;0.60;;
49223;SDS011;35050;51.316;5.994;2022-11-25T06:21:30;1.85;;;0.65;;
49223;SDS011;35050;51.316;5.994;2022-11-25T06:23:56;4.10;;;1.10;;
49223;SDS011;35050;51.316;5.994;2022-11-25T06:26:22;5.20;;;1.20;;
49223;SDS011;35050;51.316;5.994;2022-11-25T06:28:50;4.65;;;1.20;;
49223;SDS011;35050;51.316;5.994;2022-11-25T06:31:18;2.75;;;1.23;;
49223;SDS011;35050;51.316;5.994;2022-11-25T06:33:46;3.38;;;1.10;;
49223;SDS011;35050;51.316;5.994;2022-11-25T06:36:13;2.90;;;1.00;;
49223;SDS011;35050;51.316;5.994;2022-11-25T06:38:42;2.70;;;1.15;;
49223;SDS011;35050;51.316;5.994;2022-11-25T06:41:09;3.33;;;1.02;;
49223;SDS011;35050;51.316;5.994;2022-11-25T06:43:35;4.75;;;1.20;;
49223;SDS011;35050;51.316;5.994;2022-11-25T06:46:01;1.77;;;1.00;;
49223;SDS011;35050;51.316;5.994;2022-11-25T06:48:34;4.43;;;1.08;;
49223;SDS011;35050;51.316;5.994;2022-11-25T06:51:02;4.57;;;1.23;;
49223;SDS011;35050;51.316;5.994;2022-11-25T06:53:30;4.55;;;1.00;;
49223;SDS011;35050;51.316;5.994;2022-11-25T06:58:31;4.20;;;1.25;;
49223;SDS011;35050;51.316;5.994;2022-11-25T07:01:05;3.20;;;1.17;;
49223;SDS011;35050;51.316;5.994;2022-11-25T07:03:32;2.83;;;1.00;;
49223;SDS011;35050;51.316;5.994;2022-11-25T07:05:59;2.00;;;0.90;;
49223;SDS011;35050;51.316;5.994;2022-11-25T07:08:25;2.47;;;1.08;;
49223;SDS011;35050;51.316;5.994;2022-11-25T07:10:51;2.17;;;1.20;;
49223;SDS011;35050;51.316;5.994;2022-11-25T07:13:18;4.97;;;1.38;;
49223;SDS011;35050;51.316;5.994;2022-11-25T07:15:44;5.00;;;0.98;;
49223;SDS011;35050;51.316;5.994;2022-11-25T07:18:10;3.00;;;0.98;;
49223;SDS011;35050;51.316;5.994;2022-11-25T07:20:36;2.78;;;1.10;;
49223;SDS011;35050;51.316;5.994;2022-11-25T07:23:02;2.53;;;1.10;;
49223;SDS011;35050;51.316;5.994;2022-11-25T07:25:28;2.65;;;1.05;;
49223;SDS011;35050;51.316;5.994;2022-11-25T07:27:54;3.15;;;1.10;;
49223;SDS011;35050;51.316;5.994;2022-11-25T07:30:19;2.78;;;1.20;;
49223;SDS011;35050;51.316;5.994;2022-11-25T07:32:46;4.68;;;1.05;;
49223;SDS011;35050;51.316;5.994;2022-11-25T07:35:11;1.92;;;1.00;;
49223;SDS011;35050;51.316;5.994;2022-11-25T07:37:37;2.88;;;1.10;;
49223;SDS011;35050;51.316;5.994;2022-11-25T07:40:02;3.63;;;1.00;;
49223;SDS011;35050;51.316;5.994;2022-11-25T07:42:29;4.60;;;1.40;;
49223;SDS011;35050;51.316;5.994;2022-11-25T07:44:54;2.55;;;1.00;;
49223;SDS011;35050;51.316;5.994;2022-11-25T07:47:20;1.95;;;0.93;;
49223;SDS011;35050;51.316;5.994;2022-11-25T07:49:45;3.22;;;1.23;;
49223;SDS011;35050;51.316;5.994;2022-11-25T07:52:11;2.72;;;1.00;;
49223;SDS011;35050;51.316;5.994;2022-11-25T07:54:37;2.63;;;1.13;;
49223;SDS011;35050;51.316;5.994;2022-11-25T07:57:02;3.17;;;1.00;;
49223;SDS011;35050;51.316;5.994;2022-11-25T07:59:28;5.90;;;1.35;;
49223;SDS011;35050;51.316;5.994;2022-11-25T08:01:54;4.10;;;1.25;;
49223;SDS011;35050;51.316;5.994;2022-11-25T08:04:20;3.13;;;1.23;;
49223;SDS011;35050;51.316;5.994;2022-11-25T08:06:47;5.68;;;1.92;;
49223;SDS011;35050;51.316;5.994;2022-11-25T08:09:15;4.30;;;1.50;;
49223;SDS011;35050;51.316;5.994;2022-11-25T08:11:45;6.38;;;1.42;;
49223;SDS011;35050;51.316;5.994;2022-11-25T08:14:11;6.95;;;2.05;;
49223;SDS011;35050;51.316;5.994;2022-11-25T08:16:37;4.32;;;1.50;;
49223;SDS011;35050;51.316;5.994;2022-11-25T08:19:04;4.57;;;1.58;;
49223;SDS011;35050;51.316;5.994;2022-11-25T08:21:31;6.93;;;2.03;;
49223;SDS011;35050;51.316;5.994;2022-11-25T08:23:57;5.20;;;1.70;;
49223;SDS011;35050;51.316;5.994;2022-11-25T08:26:24;3.60;;;1.30;;
49223;SDS011;35050;51.316;5.994;2022-11-25T08:28:51;3.53;;;1.40;;
49223;SDS011;35050;51.316;5.994;2022-11-25T08:31:19;3.53;;;1.42;;
49223;SDS011;35050;51.316;5.994;2022-11-25T08:33:50;5.00;;;1.50;;
49223;SDS011;35050;51.316;5.994;2022-11-25T08:36:16;5.50;;;1.90;;
49223;SDS011;35050;51.316;5.994;2022-11-25T08:38:43;5.25;;;1.60;;
49223;SDS011;35050;51.316;5.994;2022-11-25T08:41:11;4.53;;;1.67;;
49223;SDS011;35050;51.316;5.994;2022-11-25T08:43:40;5.72;;;1.95;;
49223;SDS011;35050;51.316;5.994;2022-11-25T08:46:17;3.50;;;1.75;;
49223;SDS011;35050;51.316;5.994;2022-11-25T08:48:44;6.78;;;1.98;;
49223;SDS011;35050;51.316;5.994;2022-11-25T08:51:29;5.03;;;1.88;;
49223;SDS011;35050;51.316;5.994;2022-11-25T08:53:56;5.47;;;1.90;;
49223;SDS011;35050;51.316;5.994;2022-11-25T08:56:22;6.88;;;2.30;;
49223;SDS011;35050;51.316;5.994;2022-11-25T08:58:49;7.03;;;2.42;;
49223;SDS011;35050;51.316;5.994;2022-11-25T09:01:15;5.95;;;2.08;;
49223;SDS011;35050;51.316;5.994;2022-11-25T09:03:44;7.53;;;2.40;;
49223;SDS011;35050;51.316;5.994;2022-11-25T09:06:12;5.82;;;1.98;;
49223;SDS011;35050;51.316;5.994;2022-11-25T09:08:38;5.18;;;1.90;;
49223;SDS011;35050;51.316;5.994;2022-11-25T09:11:06;4.70;;;2.13;;
49223;SDS011;35050;51.316;5.994;2022-11-25T09:13:32;7.80;;;2.63;;
49223;SDS011;35050;51.316;5.994;2022-11-25T09:15:58;5.78;;;2.45;;
49223;SDS011;35050;51.316;5.994;2022-11-25T09:18:25;5.38;;;2.10;;
49223;SDS011;35050;51.316;5.994;2022-11-25T09:20:54;10.32;;;2.80;;
49223;SDS011;35050;51.316;5.994;2022-11-25T09:23:21;10.30;;;2.35;;
49223;SDS011;35050;51.316;5.994;2022-11-25T09:25:54;5.05;;;2.08;;
49223;SDS011;35050;51.316;5.994;2022-11-25T09:28:22;4.90;;;2.42;;
49223;SDS011;35050;51.316;5.994;2022-11-25T09:30:48;8.32;;;2.10;;
49223;SDS011;35050;51.316;5.994;2022-11-25T09:33:15;7.15;;;2.08;;
49223;SDS011;35050;51.316;5.994;2022-11-25T09:35:41;7.00;;;2.00;;
49223;SDS011;35050;51.316;5.994;2022-11-25T09:38:07;10.02;;;2.95;;
49223;SDS011;35050;51.316;5.994;2022-11-25T09:40:41;4.88;;;1.63;;
49223;SDS011;35050;51.316;5.994;2022-11-25T09:52:08;5.32;;;1.90;;
49223;SDS011;35050;51.316;5.994;2022-11-25T09:54:48;10.10;;;2.70;;
49223;SDS011;35050;51.316;5.994;2022-11-25T10:00:17;9.98;;;2.50;;
49223;SDS011;35050;51.316;5.994;2022-11-25T10:08:13;7.03;;;2.28;;
49223;SDS011;35050;51.316;5.994;2022-11-25T10:10:46;8.90;;;3.47;;
49223;SDS011;35050;51.316;5.994;2022-11-25T10:16:21;8.13;;;2.55;;
49223;SDS011;35050;51.316;5.994;2022-11-25T10:18:58;7.18;;;2.67;;
49223;SDS011;35050;51.316;5.994;2022-11-25T10:21:44;6.38;;;2.47;;
49223;SDS011;35050;51.316;5.994;2022-11-25T10:24:14;9.27;;;2.60;;
49223;SDS011;35050;51.316;5.994;2022-11-25T10:26:48;5.82;;;1.88;;
49223;SDS011;35050;51.316;5.994;2022-11-25T10:29:23;9.07;;;2.17;;
49223;SDS011;35050;51.316;5.994;2022-11-25T10:31:54;8.75;;;2.08;;
49223;SDS011;35050;51.316;5.994;2022-11-25T10:34:35;5.53;;;1.88;;
49223;SDS011;35050;51.316;5.994;2022-11-25T10:37:08;6.43;;;2.53;;
49223;SDS011;35050;51.316;5.994;2022-11-25T10:39:38;9.50;;;2.70;;
49223;SDS011;35050;51.316;5.994;2022-11-25T10:42:05;9.93;;;2.65;;
49223;SDS011;35050;51.316;5.994;2022-11-25T10:44:39;9.05;;;3.25;;
49223;SDS011;35050;51.316;5.994;2022-11-25T10:52:49;5.93;;;2.33;;
49223;SDS011;35050;51.316;5.994;2022-11-25T10:55:26;7.05;;;2.42;;
49223;SDS011;35050;51.316;5.994;2022-11-25T10:57:53;8.00;;;2.30;;
49223;SDS011;35050;51.316;5.994;2022-11-25T11:00:23;8.25;;;2.10;;
49223;SDS011;35050;51.316;5.994;2022-11-25T11:02:56;6.85;;;2.65;;
49223;SDS011;35050;51.316;5.994;2022-11-25T11:05:28;6.97;;;2.42;;
49223;SDS011;35050;51.316;5.994;2022-11-25T11:08:06;9.45;;;2.53;;
49223;SDS011;35050;51.316;5.994;2022-11-25T11:10:43;11.30;;;2.65;;
49223;SDS011;35050;51.316;5.994;2022-11-25T11:13:25;8.85;;;2.88;;
49223;SDS011;35050;51.316;5.994;2022-11-25T11:15:57;5.50;;;1.73;;
49223;SDS011;35050;51.316;5.994;2022-11-25T11:20:55;5.03;;;1.92;;
49223;SDS011;35050;51.316;5.994;2022-11-25T11:23:22;10.13;;;2.50;;
49223;SDS011;35050;51.316;5.994;2022-11-25T11:25:59;6.43;;;2.05;;
49223;SDS011;35050;51.316;5.994;2022-11-25T11:28:36;6.45;;;2.30;;
49223;SDS011;35050;51.316;5.994;2022-11-25T11:33:40;6.65;;;2.25;;
49223;SDS011;35050;51.316;5.994;2022-11-25T11:38:52;7.97;;;2.40;;
49223;SDS011;35050;51.316;5.994;2022-11-25T11:41:38;7.00;;;2.55;;
49223;SDS011;35050;51.316;5.994;2022-11-25T11:55:58;10.05;;;2.58;;
49223;SDS011;35050;51.316;5.994;2022-11-25T12:04:26;5.40;;;2.10;;
49223;SDS011;35050;51.316;5.994;2022-11-25T12:09:38;7.75;;;2.08;;
49223;SDS011;35050;51.316;5.994;2022-11-25T12:12:34;5.13;;;2.00;;
49223;SDS011;35050;51.316;5.994;2022-11-25T12:15:08;4.63;;;2.10;;
49223;SDS011;35050;51.316;5.994;2022-11-25T12:17:50;6.75;;;2.03;;
49223;SDS011;35050;51.316;5.994;2022-11-25T12:20:26;3.88;;;1.75;;
49223;SDS011;35050;51.316;5.994;2022-11-25T12:22:59;10.70;;;2.85;;
49223;SDS011;35050;51.316;5.994;2022-11-25T12:25:29;6.13;;;2.30;;
49223;SDS011;35050;51.316;5.994;2022-11-25T12:28:00;7.10;;;2.42;;
49223;SDS011;35050;51.316;5.994;2022-11-25T12:31:24;5.88;;;2.03;;
49223;SDS011;35050;51.316;5.994;2022-11-25T12:33:45;5.85;;;2.05;;
49223;SDS011;35050;51.316;5.994;2022-11-25T12:36:33;5.75;;;1.88;;
49223;SDS011;35050;51.316;5.994;2022-11-25T12:41:34;5.10;;;1.90;;
49223;SDS011;35050;51.316;5.994;2022-11-25T12:46:53;5.57;;;1.85;;
49223;SDS011;35050;51.316;5.994;2022-11-25T12:49:21;3.03;;;1.50;;
49223;SDS011;35050;51.316;5.994;2022-11-25T13:00:22;6.40;;;1.90;;
49223;SDS011;35050;51.316;5.994;2022-11-25T13:17:38;3.38;;;1.65;;
49223;SDS011;35050;51.316;5.994;2022-11-25T13:25:41;4.65;;;1.60;;
49223;SDS011;35050;51.316;5.994;2022-11-25T13:30:52;2.75;;;1.20;;
49223;SDS011;35050;51.316;5.994;2022-11-25T13:33:54;3.78;;;1.50;;
49223;SDS011;35050;51.316;5.994;2022-11-25T13:36:25;3.25;;;1.17;;
49223;SDS011;35050;51.316;5.994;2022-11-25T13:39:13;5.78;;;1.83;;
49223;SDS011;35050;51.316;5.994;2022-11-25T13:41:43;3.53;;;1.23;;
49223;SDS011;35050;51.316;5.994;2022-11-25T13:51:54;4.28;;;1.40;;
49223;SDS011;35050;51.316;5.994;2022-11-25T13:54:45;2.50;;;0.90;;
49223;SDS011;35050;51.316;5.994;2022-11-25T14:00:00;2.65;;;1.38;;
49223;SDS011;35050;51.316;5.994;2022-11-25T14:02:35;3.30;;;1.35;;
49223;SDS011;35050;51.316;5.994;2022-11-25T14:16:08;5.07;;;1.73;;
49223;SDS011;35050;51.316;5.994;2022-11-25T14:19:15;6.30;;;1.85;;
49223;SDS011;35050;51.316;5.994;2022-11-25T14:24:45;6.07;;;1.85;;
49223;SDS011;35050;51.316;5.994;2022-11-25T14:27:16;4.85;;;1.77;;
49223;SDS011;35050;51.316;5.994;2022-11-25T14:29:55;3.58;;;1.33;;
49223;SDS011;35050;51.316;5.994;2022-11-25T14:32:37;4.40;;;1.45;;
49223;SDS011;35050;51.316;5.994;2022-11-25T14:35:09;3.55;;;1.05;;
49223;SDS011;35050;51.316;5.994;2022-11-25T14:37:53;6.07;;;1.02;;
49223;SDS011;35050;51.316;5.994;2022-11-25T14:40:28;4.20;;;1.45;;
49223;SDS011;35050;51.316;5.994;2022-11-25T14:43:05;4.40;;;1.10;;
49223;SDS011;35050;51.316;5.994;2022-11-25T14:45:36;3.28;;;1.30;;
49223;SDS011;35050;51.316;5.994;2022-11-25T14:48:12;5.80;;;2.00;;
49223;SDS011;35050;51.316;5.994;2022-11-25T14:50:37;3.63;;;1.15;;
49223;SDS011;35050;51.316;5.994;2022-11-25T14:53:07;3.78;;;1.95;;
49223;SDS011;35050;51.316;5.994;2022-11-25T14:55:34;4.47;;;1.77;;
49223;SDS011;35050;51.316;5.994;2022-11-25T14:58:00;5.70;;;1.55;;
49223;SDS011;35050;51.316;5.994;2022-11-25T15:00:26;3.25;;;1.50;;
49223;SDS011;35050;51.316;5.994;2022-11-25T15:02:54;6.13;;;1.88;;
49223;SDS011;35050;51.316;5.994;2022-11-25T15:05:23;6.05;;;1.77;;
49223;SDS011;35050;51.316;5.994;2022-11-25T15:08:01;2.75;;;1.20;;
49223;SDS011;35050;51.316;5.994;2022-11-25T15:10:40;4.22;;;1.58;;
49223;SDS011;35050;51.316;5.994;2022-11-25T15:13:12;4.93;;;1.65;;
49223;SDS011;35050;51.316;5.994;2022-11-25T15:15:44;4.18;;;1.40;;
49223;SDS011;35050;51.316;5.994;2022-11-25T15:18:12;5.70;;;1.67;;
49223;SDS011;35050;51.316;5.994;2022-11-25T15:20:45;6.65;;;1.52;;
49223;SDS011;35050;51.316;5.994;2022-11-25T15:23:19;7.30;;;2.00;;
49223;SDS011;35050;51.316;5.994;2022-11-25T15:25:55;4.53;;;2.05;;
49223;SDS011;35050;51.316;5.994;2022-11-25T15:28:21;5.07;;;1.50;;
49223;SDS011;35050;51.316;5.994;2022-11-25T15:30:54;5.40;;;1.63;;
49223;SDS011;35050;51.316;5.994;2022-11-25T15:33:24;4.20;;;1.77;;
49223;SDS011;35050;51.316;5.994;2022-11-25T15:35:51;5.75;;;1.63;;
49223;SDS011;35050;51.316;5.994;2022-11-25T15:38:18;3.85;;;1.48;;
49223;SDS011;35050;51.316;5.994;2022-11-25T15:40:58;3.83;;;1.42;;
49223;SDS011;35050;51.316;5.994;2022-11-25T15:43:28;5.32;;;1.60;;
49223;SDS011;35050;51.316;5.994;2022-11-25T15:45:56;3.95;;;1.50;;
49223;SDS011;35050;51.316;5.994;2022-11-25T15:48:26;4.03;;;1.33;;
49223;SDS011;35050;51.316;5.994;2022-11-25T15:51:18;4.72;;;1.70;;
49223;SDS011;35050;51.316;5.994;2022-11-25T15:53:59;5.13;;;1.60;;
49223;SDS011;35050;51.316;5.994;2022-11-25T15:56:31;4.05;;;1.75;;
49223;SDS011;35050;51.316;5.994;2022-11-25T15:59:00;9.52;;;2.63;;
49223;SDS011;35050;51.316;5.994;2022-11-25T16:01:26;6.32;;;2.00;;
49223;SDS011;35050;51.316;5.994;2022-11-25T16:03:52;8.05;;;2.33;;
49223;SDS011;35050;51.316;5.994;2022-11-25T16:06:34;4.85;;;1.55;;
49223;SDS011;35050;51.316;5.994;2022-11-25T16:09:01;3.80;;;1.45;;
49223;SDS011;35050;51.316;5.994;2022-11-25T16:11:28;2.92;;;1.70;;
49223;SDS011;35050;51.316;5.994;2022-11-25T16:17:03;5.25;;;1.83;;
49223;SDS011;35050;51.316;5.994;2022-11-25T16:19:37;6.25;;;2.20;;
49223;SDS011;35050;51.316;5.994;2022-11-25T16:22:08;7.90;;;2.60;;
49223;SDS011;35050;51.316;5.994;2022-11-25T16:24:39;10.43;;;3.72;;
49223;SDS011;35050;51.316;5.994;2022-11-25T16:32:25;5.30;;;2.45;;
49223;SDS011;35050;51.316;5.994;2022-11-25T16:34:54;7.40;;;2.80;;
49223;SDS011;35050;51.316;5.994;2022-11-25T16:37:24;9.27;;;3.58;;
49223;SDS011;35050;51.316;5.994;2022-11-25T16:39:50;9.27;;;2.80;;
49223;SDS011;35050;51.316;5.994;2022-11-25T16:42:19;9.25;;;3.20;;
49223;SDS011;35050;51.316;5.994;2022-11-25T16:44:49;8.13;;;2.83;;
49223;SDS011;35050;51.316;5.994;2022-11-25T16:47:20;5.35;;;2.13;;
49223;SDS011;35050;51.316;5.994;2022-11-25T16:49:46;5.35;;;2.00;;
49223;SDS011;35050;51.316;5.994;2022-11-25T16:52:12;7.43;;;2.03;;
49223;SDS011;35050;51.316;5.994;2022-11-25T16:54:38;8.15;;;2.20;;
49223;SDS011;35050;51.316;5.994;2022-11-25T16:57:05;6.88;;;2.08;;
49223;SDS011;35050;51.316;5.994;2022-11-25T16:59:35;6.75;;;2.22;;
49223;SDS011;35050;51.316;5.994;2022-11-25T17:02:10;7.78;;;2.25;;
49223;SDS011;35050;51.316;5.994;2022-11-25T17:04:40;4.65;;;1.70;;
49223;SDS011;35050;51.316;5.994;2022-11-25T17:07:10;4.60;;;2.20;;
49223;SDS011;35050;51.316;5.994;2022-11-25T17:09:37;4.32;;;1.60;;